Time;durP1;ratioP1;P1;durP2;ratioP2;P2;SDS_P1;SDS_P2;PMS_P1;PMS_P2;Temp;Humidity;BMP_temperature;BMP_pressure;BME280_temperature;BME280_humidity;BME280_pressure;Samples;Min_cycle;Max_cycle;Signal;HPM_P1;HPM_P2
2022/06/29 00:00:33;;;;;;;1.92;1.30;;;16.20;99.90;;;;;;4998554;28;20268;-95
2022/06/29 00:02:58;;;;;;;4.82;1.55;;;16.20;99.90;;;;;;4996644;28;20226;-94
2022/06/29 00:05:26;;;;;;;3.58;1.52;;;16.20;99.90;;;;;;4994966;28;20219;-92
2022/06/29 00:07:54;;;;;;;2.30;1.65;;;16.20;99.90;;;;;;4994307;28;20176;-93
2022/06/29 00:10:21;;;;;;;2.05;1.70;;;16.20;99.90;;;;;;4996411;28;20180;-93
2022/06/29 00:12:47;;;;;;;4.15;1.55;;;16.20;99.90;;;;;;5000895;28;20189;-95
2022/06/29 00:15:14;;;;;;;5.75;1.80;;;16.20;99.90;;;;;;4998702;28;20187;-92
2022/06/29 00:17:40;;;;;;;3.97;1.58;;;16.10;99.90;;;;;;5002091;28;20300;-94
2022/06/29 00:20:07;;;;;;;3.10;1.70;;;16.10;99.90;;;;;;5017614;28;20179;-93
2022/06/29 00:22:35;;;;;;;2.58;1.90;;;16.10;99.90;;;;;;5008437;28;20191;-95
2022/06/29 00:25:02;;;;;;;3.13;1.63;;;16.00;99.90;;;;;;4976762;28;20212;-94
2022/06/29 00:27:27;;;;;;;3.55;1.90;;;16.00;99.90;;;;;;4999324;28;20190;-95
2022/06/29 00:29:54;;;;;;;3.50;1.52;;;15.90;99.90;;;;;;4995619;28;20180;-94
2022/06/29 00:32:20;;;;;;;5.35;1.90;;;15.90;99.90;;;;;;5000413;28;20298;-95
2022/06/29 00:34:45;;;;;;;1.77;1.50;;;15.90;99.90;;;;;;5001413;28;20219;-95
2022/06/29 00:37:11;;;;;;;7.60;1.75;;;15.90;99.90;;;;;;4994925;28;20273;-94
2022/06/29 00:40:11;;;;;;;1.75;1.42;;;15.90;99.90;;;;;;5011678;28;20625;-93
2022/06/29 00:42:37;;;;;;;3.40;1.65;;;16.00;99.90;;;;;;4996591;28;20481;-91
2022/06/29 00:45:03;;;;;;;2.35;1.45;;;16.00;99.90;;;;;;4995257;28;20653;-93
2022/06/29 00:47:29;;;;;;;2.88;1.60;;;16.00;99.60;;;;;;4995199;28;20184;-96
2022/06/29 00:49:59;;;;;;;3.22;1.60;;;16.00;99.50;;;;;;4980140;28;20187;-93
2022/06/29 00:52:26;;;;;;;2.35;1.40;;;16.10;99.40;;;;;;5009007;28;20622;-95
2022/06/29 00:54:55;;;;;;;2.17;1.52;;;16.10;99.50;;;;;;5011061;28;20491;-91
2022/06/29 00:57:25;;;;;;;2.42;1.40;;;16.10;99.30;;;;;;5012689;28;20187;-90
2022/06/29 00:59:54;;;;;;;5.47;1.30;;;16.10;98.90;;;;;;5006112;28;20187;-89
2022/06/29 01:02:23;;;;;;;2.50;1.40;;;16.10;98.70;;;;;;4995434;28;20188;-90
2022/06/29 01:04:49;;;;;;;1.63;1.40;;;16.00;98.80;;;;;;5002151;28;20218;-88
2022/06/29 01:07:17;;;;;;;1.98;1.70;;;16.00;99.20;;;;;;5004660;28;20196;-92
2022/06/29 01:09:44;;;;;;;3.50;1.70;;;16.00;99.40;;;;;;4994162;28;20231;-92
2022/06/29 01:12:11;;;;;;;3.13;1.98;;;16.00;99.90;;;;;;4995579;28;20207;-88
2022/06/29 01:14:36;;;;;;;3.13;2.05;;;15.80;99.90;;;;;;4997186;28;20238;-91
2022/06/29 01:17:03;;;;;;;1.65;1.48;;;15.80;99.90;;;;;;4994927;28;20525;-96
2022/06/29 01:19:29;;;;;;;3.38;1.67;;;15.70;99.90;;;;;;4991316;28;20630;-96
2022/06/29 01:22:06;;;;;;;3.03;1.80;;;15.60;99.90;;;;;;4996560;28;20274;-95
2022/06/29 01:24:31;;;;;;;2.97;1.88;;;15.60;99.90;;;;;;4991823;28;20270;-95
2022/06/29 01:26:57;;;;;;;2.38;1.90;;;15.60;99.90;;;;;;4980608;28;20222;-96
2022/06/29 01:29:23;;;;;;;3.47;1.90;;;15.50;99.90;;;;;;4999274;28;20183;-93
2022/06/29 01:31:54;;;;;;;4.53;1.90;;;15.50;99.90;;;;;;4997278;28;20198;-96
2022/06/29 01:34:20;;;;;;;2.28;1.50;;;15.40;99.90;;;;;;4983710;28;20212;-94
2022/06/29 01:36:46;;;;;;;2.15;1.80;;;15.40;99.90;;;;;;5000467;28;20240;-94
2022/06/29 01:39:11;;;;;;;2.33;1.60;;;15.40;99.90;;;;;;5008169;28;20210;-93
2022/06/29 01:41:46;;;;;;;3.30;1.65;;;15.30;99.90;;;;;;4993878;28;20648;-94
2022/06/29 01:44:12;;;;;;;2.00;1.77;;;15.20;99.90;;;;;;5009788;28;20183;-92
2022/06/29 01:46:37;;;;;;;1.80;1.70;;;15.20;99.90;;;;;;5004171;28;20215;-95
2022/06/29 01:49:03;;;;;;;6.68;1.60;;;15.20;99.90;;;;;;5004146;28;20268;-95
2022/06/29 01:51:29;;;;;;;4.13;1.60;;;15.20;99.90;;;;;;4995114;28;20195;-93
2022/06/29 01:53:55;;;;;;;2.58;1.55;;;15.20;99.90;;;;;;4995445;28;20161;-92
2022/06/29 01:56:20;;;;;;;2.17;1.70;;;15.20;99.90;;;;;;4993935;28;20211;-92
2022/06/29 01:58:47;;;;;;;2.42;1.50;;;15.20;99.90;;;;;;4995202;28;20591;-94
2022/06/29 02:01:13;;;;;;;3.60;1.70;;;15.20;99.90;;;;;;4979549;28;20192;-92
2022/06/29 02:03:39;;;;;;;4.93;1.80;;;15.30;99.90;;;;;;4993692;28;20176;-91
2022/06/29 02:06:05;;;;;;;2.67;1.50;;;15.30;99.90;;;;;;4992972;28;20250;-94
2022/06/29 02:08:31;;;;;;;2.90;1.60;;;15.40;99.90;;;;;;4996153;28;20661;-93
2022/06/29 02:11:04;;;;;;;2.67;1.70;;;15.40;99.90;;;;;;4998988;28;20176;-92
2022/06/29 02:13:32;;;;;;;2.55;1.65;;;15.40;99.90;;;;;;5016691;28;20212;-91
2022/06/29 02:15:58;;;;;;;4.57;1.98;;;15.40;99.90;;;;;;5014867;28;20225;-91
2022/06/29 02:18:23;;;;;;;1.90;1.58;;;15.40;99.90;;;;;;5002097;28;20191;-91
2022/06/29 02:20:50;;;;;;;3.33;1.73;;;15.40;99.90;;;;;;5017375;28;20179;-88
2022/06/29 02:23:16;;;;;;;3.95;1.65;;;15.40;99.90;;;;;;4986965;28;20191;-91
2022/06/29 02:25:42;;;;;;;3.20;1.50;;;15.40;99.90;;;;;;5013012;28;20212;-86
2022/06/29 02:28:07;;;;;;;2.40;1.73;;;15.40;99.90;;;;;;4996086;28;20331;-88
2022/06/29 02:36:03;;;;;;;3.92;1.60;;;15.30;99.90;;;;;;4998525;28;20277;-92
2022/06/29 02:38:28;;;;;;;3.03;1.60;;;15.30;99.90;;;;;;4997187;28;20180;-92
2022/06/29 02:40:54;;;;;;;4.72;1.50;;;15.30;99.90;;;;;;4998251;28;20193;-94
2022/06/29 02:43:20;;;;;;;3.17;1.52;;;15.30;99.90;;;;;;4997604;28;20271;-92
2022/06/29 02:45:45;;;;;;;2.22;1.60;;;15.30;99.90;;;;;;5003480;28;20250;-94
2022/06/29 02:48:11;;;;;;;1.95;1.73;;;15.30;99.90;;;;;;5014800;28;20225;-89
2022/06/29 02:50:37;;;;;;;3.25;1.48;;;15.40;99.90;;;;;;4998571;28;20503;-93
2022/06/29 02:53:05;;;;;;;2.63;1.55;;;15.40;99.90;;;;;;4997789;28;20184;-91
2022/06/29 02:55:30;;;;;;;2.90;1.77;;;15.40;99.90;;;;;;4998094;28;20223;-90
2022/06/29 02:57:56;;;;;;;1.88;1.73;;;15.40;99.90;;;;;;5006103;28;20182;-92
2022/06/29 03:00:22;;;;;;;2.83;1.63;;;15.40;99.90;;;;;;4998290;28;20180;-93
2022/06/29 03:02:47;;;;;;;3.60;1.60;;;15.40;99.90;;;;;;4998813;28;20179;-95
2022/06/29 03:05:13;;;;;;;1.75;1.35;;;15.40;99.90;;;;;;4992149;28;20284;-96
2022/06/29 03:07:38;;;;;;;3.03;1.55;;;15.50;99.90;;;;;;5006627;28;20200;-87
2022/06/29 03:10:04;;;;;;;2.63;1.80;;;15.50;99.90;;;;;;4996476;28;20192;-94
2022/06/29 03:12:38;;;;;;;5.57;1.70;;;15.50;99.90;;;;;;4998124;28;20191;-91
2022/06/29 03:15:04;;;;;;;4.20;1.83;;;15.50;99.90;;;;;;4997915;28;20223;-90
2022/06/29 03:17:30;;;;;;;4.75;1.70;;;15.50;99.90;;;;;;4996588;28;20278;-96
2022/06/29 03:19:58;;;;;;;2.22;1.77;;;15.50;99.90;;;;;;5011129;28;20284;-91
2022/06/29 03:22:25;;;;;;;2.28;1.60;;;15.50;99.90;;;;;;4999584;28;20599;-91
2022/06/29 03:24:51;;;;;;;1.95;1.60;;;15.50;99.90;;;;;;4996958;28;20745;-90
2022/06/29 03:27:16;;;;;;;11.57;1.80;;;15.50;99.90;;;;;;4998087;28;20271;-89
2022/06/29 03:29:43;;;;;;;2.63;1.88;;;15.60;99.90;;;;;;4996699;28;20191;-93
2022/06/29 03:32:09;;;;;;;3.40;1.83;;;15.60;99.90;;;;;;4997841;28;20215;-96
2022/06/29 03:34:34;;;;;;;2.17;1.55;;;15.50;99.90;;;;;;4997762;28;20168;-90
2022/06/29 03:37:00;;;;;;;3.28;1.70;;;15.50;99.90;;;;;;4988353;28;20232;-94
2022/06/29 03:39:25;;;;;;;2.90;1.70;;;15.50;99.90;;;;;;4986998;28;20219;-96
2022/06/29 03:41:51;;;;;;;5.53;1.75;;;15.50;99.90;;;;;;4995274;28;20181;-91
2022/06/29 03:44:17;;;;;;;2.30;1.80;;;15.50;99.90;;;;;;4998480;28;20669;-94
2022/06/29 03:46:42;;;;;;;2.70;1.70;;;15.50;99.90;;;;;;4997198;28;20672;-93
2022/06/29 03:49:08;;;;;;;2.70;1.90;;;15.50;99.90;;;;;;4996020;28;20183;-89
2022/06/29 03:51:34;;;;;;;4.03;1.67;;;15.50;99.90;;;;;;4999016;28;20575;-88
2022/06/29 03:53:59;;;;;;;3.95;2.03;;;15.60;99.90;;;;;;4996937;28;20188;-86
2022/06/29 03:56:25;;;;;;;2.58;2.08;;;15.60;99.90;;;;;;5014778;28;20172;-86
2022/06/29 03:58:51;;;;;;;1.63;1.42;;;15.60;99.90;;;;;;5013141;28;20199;-95
2022/06/29 04:01:16;;;;;;;1.98;1.70;;;15.60;99.90;;;;;;4999929;28;20615;-94
2022/06/29 04:03:47;;;;;;;3.00;2.20;;;15.60;99.90;;;;;;5001294;28;20187;-91
2022/06/29 04:06:13;;;;;;;3.00;2.17;;;15.70;99.90;;;;;;4997132;28;20223;-95
2022/06/29 04:08:39;;;;;;;2.45;1.80;;;15.70;99.90;;;;;;4992507;28;20185;-96
2022/06/29 04:11:48;;;;;;;5.43;2.10;;;15.70;99.90;;;;;;4980501;28;20204;-96
2022/06/29 04:13:55;;;;;;;3.15;2.08;;;15.80;99.90;;;;;;4994688;28;20626;-96
2022/06/29 04:16:21;;;;;;;2.20;1.80;;;15.80;99.90;;;;;;4997497;28;20563;-96
2022/06/29 04:18:47;;;;;;;5.65;1.95;;;15.90;99.90;;;;;;4990158;28;20274;-96
2022/06/29 04:21:12;;;;;;;3.78;1.80;;;16.00;99.90;;;;;;4997731;28;20615;-95
2022/06/29 04:23:38;;;;;;;4.40;1.90;;;16.00;99.90;;;;;;5011051;28;20622;-94
2022/06/29 04:26:04;;;;;;;3.47;1.95;;;16.00;99.90;;;;;;5019131;28;20298;-96
2022/06/29 04:28:30;;;;;;;4.93;1.92;;;16.00;99.90;;;;;;5011583;28;20201;-93
2022/06/29 04:30:56;;;;;;;3.45;1.85;;;16.00;99.90;;;;;;5016461;28;20183;-94
2022/06/29 04:33:22;;;;;;;3.03;1.95;;;16.10;99.90;;;;;;4999029;28;20525;-93
2022/06/29 04:35:47;;;;;;;2.53;1.90;;;16.10;99.90;;;;;;4994526;28;20188;-94
2022/06/29 04:38:13;;;;;;;4.35;2.10;;;16.10;99.90;;;;;;4995898;28;20210;-95
2022/06/29 04:40:39;;;;;;;2.25;1.90;;;16.20;99.90;;;;;;5014456;28;20194;-94
2022/06/29 04:43:04;;;;;;;2.90;1.60;;;16.30;99.90;;;;;;4986813;28;20713;-90
2022/06/29 04:48:14;;;;;;;3.58;1.80;;;16.50;99.90;;;;;;4985722;28;20282;-95
2022/06/29 04:50:42;;;;;;;6.78;1.98;;;16.70;99.90;;;;;;4992083;28;20208;-88
2022/06/29 04:53:17;;;;;;;4.03;2.03;;;16.80;99.90;;;;;;4991829;28;20239;-88
2022/06/29 04:55:43;;;;;;;4.22;1.90;;;16.90;99.90;;;;;;4995686;28;20222;-93
2022/06/29 04:58:09;;;;;;;1.70;1.60;;;17.10;99.90;;;;;;4998884;28;20187;-89
2022/06/29 05:00:34;;;;;;;2.88;2.03;;;17.10;99.90;;;;;;5014890;28;20187;-86
2022/06/29 05:03:00;;;;;;;4.20;2.10;;;17.20;99.90;;;;;;4998462;28;20264;-92
2022/06/29 05:05:26;;;;;;;5.65;2.03;;;17.20;99.90;;;;;;5015449;28;20210;-89
2022/06/29 05:07:51;;;;;;;6.07;2.00;;;17.30;99.90;;;;;;5000481;28;20196;-93
2022/06/29 05:10:17;;;;;;;2.28;1.60;;;17.40;99.90;;;;;;4995900;28;20196;-90
2022/06/29 05:12:43;;;;;;;3.70;1.83;;;17.50;99.90;;;;;;4995757;28;20199;-94
2022/06/29 05:15:15;;;;;;;2.13;1.92;;;17.50;99.90;;;;;;4994272;28;20522;-90
2022/06/29 05:17:41;;;;;;;2.92;1.77;;;17.50;99.90;;;;;;4994350;28;20267;-88
2022/06/29 05:20:08;;;;;;;6.20;1.83;;;17.60;99.90;;;;;;4995646;28;20259;-91
2022/06/29 05:22:35;;;;;;;3.33;1.77;;;17.70;99.90;;;;;;4998883;28;20190;-90
2022/06/29 05:25:02;;;;;;;4.65;2.03;;;17.70;99.90;;;;;;5014359;28;20203;-90
2022/06/29 05:27:28;;;;;;;3.72;1.83;;;17.80;99.90;;;;;;4990948;28;20184;-87
2022/06/29 05:29:54;;;;;;;3.05;1.90;;;17.90;99.90;;;;;;4995614;28;20258;-87
2022/06/29 05:32:20;;;;;;;2.17;1.85;;;18.10;99.90;;;;;;4991910;28;20203;-93
2022/06/29 05:34:52;;;;;;;1.90;1.80;;;18.20;99.90;;;;;;4976709;28;20208;-91
2022/06/29 05:37:17;;;;;;;4.03;1.90;;;18.30;99.90;;;;;;4986398;28;20736;-96
2022/06/29 05:39:44;;;;;;;2.05;1.67;;;18.30;99.90;;;;;;4997341;28;20191;-91
2022/06/29 05:42:10;;;;;;;3.30;1.88;;;18.30;99.90;;;;;;5015096;28;20187;-89
2022/06/29 05:44:36;;;;;;;6.88;1.83;;;18.30;99.90;;;;;;4998444;28;20176;-92
2022/06/29 05:47:03;;;;;;;2.05;1.83;;;18.30;99.90;;;;;;4991230;28;20541;-92
2022/06/29 05:49:29;;;;;;;2.05;1.60;;;18.40;99.90;;;;;;5014057;28;20183;-94
2022/06/29 05:51:54;;;;;;;4.32;2.20;;;18.40;99.90;;;;;;5018214;28;20209;-88
2022/06/29 05:54:21;;;;;;;4.85;2.03;;;18.40;99.90;;;;;;4990627;28;20246;-95
2022/06/29 05:56:47;;;;;;;4.93;1.60;;;18.40;99.90;;;;;;4995659;28;20172;-91
2022/06/29 05:59:12;;;;;;;2.28;1.80;;;18.40;99.90;;;;;;5011191;28;20764;-91
2022/06/29 06:01:38;;;;;;;5.18;2.35;;;18.40;99.90;;;;;;5004765;28;20206;-93
2022/06/29 06:04:04;;;;;;;4.43;2.00;;;18.40;99.90;;;;;;4996231;28;20187;-93
2022/06/29 06:06:30;;;;;;;3.15;2.17;;;18.40;99.90;;;;;;4998354;28;20653;-94
2022/06/29 06:08:56;;;;;;;3.40;1.95;;;18.40;99.90;;;;;;4990005;28;20297;-95
2022/06/29 06:11:21;;;;;;;4.85;2.05;;;18.40;99.90;;;;;;4997381;28;20274;-94
2022/06/29 06:13:47;;;;;;;2.88;1.70;;;18.40;99.90;;;;;;5007677;28;20215;-90
2022/06/29 06:16:13;;;;;;;2.47;1.70;;;18.50;99.90;;;;;;4999543;28;20510;-94
2022/06/29 06:18:39;;;;;;;2.67;1.60;;;18.70;99.90;;;;;;4998162;28;20242;-96
2022/06/29 06:21:04;;;;;;;2.72;1.80;;;18.90;99.90;;;;;;5006899;28;20254;-90
2022/06/29 06:23:30;;;;;;;5.13;1.90;;;19.00;99.90;;;;;;5000104;28;20614;-89
2022/06/29 06:26:02;;;;;;;3.33;1.88;;;19.10;99.90;;;;;;5003604;28;20231;-94
2022/06/29 06:28:28;;;;;;;5.18;1.80;;;19.20;99.90;;;;;;5009575;28;20524;-96
2022/06/29 06:30:53;;;;;;;3.03;2.25;;;19.30;99.90;;;;;;5012212;28;20195;-91
2022/06/29 06:33:20;;;;;;;3.30;1.48;;;19.40;99.90;;;;;;4998144;28;20175;-92
2022/06/29 06:35:53;;;;;;;2.78;1.90;;;19.50;99.90;;;;;;4994007;28;20184;-95
2022/06/29 06:38:18;;;;;;;6.30;2.10;;;19.50;99.90;;;;;;4976987;28;20204;-96
2022/06/29 06:43:56;;;;;;;2.30;1.73;;;19.80;99.90;;;;;;4955566;28;20217;-96
2022/06/29 06:46:22;;;;;;;6.15;1.88;;;19.90;99.90;;;;;;4937765;29;20719;-92
2022/06/29 06:48:50;;;;;;;3.35;2.13;;;20.00;99.90;;;;;;4958474;28;20189;-94
2022/06/29 06:51:17;;;;;;;5.03;1.90;;;20.20;99.90;;;;;;4965618;28;20189;-95
2022/06/29 06:53:43;;;;;;;4.70;2.00;;;20.30;99.90;;;;;;4966823;28;20184;-86
2022/06/29 06:56:10;;;;;;;3.03;1.60;;;20.40;99.90;;;;;;4977304;28;20504;-96
2022/06/29 06:58:36;;;;;;;6.68;1.95;;;20.70;99.90;;;;;;4980970;28;20216;-93
2022/06/29 07:01:06;;;;;;;2.00;1.60;;;20.80;99.90;;;;;;4979636;28;20271;-88
2022/06/29 07:03:37;;;;;;;2.22;1.60;;;21.00;99.90;;;;;;4979732;28;20185;-95
2022/06/29 07:06:12;;;;;;;3.28;1.60;;;21.20;99.90;;;;;;4975932;28;20735;-94
2022/06/29 07:08:39;;;;;;;5.07;1.60;;;21.40;99.90;;;;;;4980045;28;20192;-90
2022/06/29 07:11:06;;;;;;;3.92;1.60;;;21.60;99.90;;;;;;4977667;28;20193;-95
2022/06/29 07:13:33;;;;;;;1.75;1.45;;;21.70;99.80;;;;;;4974230;28;20193;-93
2022/06/29 07:16:04;;;;;;;4.95;1.45;;;21.80;99.90;;;;;;4958765;28;20192;-91
2022/06/29 07:18:30;;;;;;;2.78;1.67;;;21.90;99.80;;;;;;4958537;28;20181;-94
2022/06/29 07:20:56;;;;;;;4.68;1.92;;;22.00;99.90;;;;;;4967628;28;20232;-96
2022/06/29 07:23:22;;;;;;;2.05;1.73;;;22.10;98.70;;;;;;4978707;28;20173;-95
2022/06/29 07:25:48;;;;;;;4.25;1.40;;;22.30;99.50;;;;;;4977759;28;20238;-90
2022/06/29 07:28:14;;;;;;;3.08;1.60;;;22.50;99.00;;;;;;4987103;28;20947;-88
2022/06/29 07:30:39;;;;;;;1.58;1.40;;;22.60;98.00;;;;;;4997761;28;20226;-89
2022/06/29 07:33:05;;;;;;;5.38;1.50;;;22.70;98.40;;;;;;4990269;28;20238;-87
2022/06/29 07:35:32;;;;;;;3.20;1.40;;;22.90;98.40;;;;;;4979211;28;20184;-88
2022/06/29 07:37:58;;;;;;;2.15;1.20;;;23.00;98.00;;;;;;4995503;28;20231;-89
2022/06/29 07:40:24;;;;;;;1.85;1.52;;;23.10;97.90;;;;;;4993818;28;20188;-90
2022/06/29 07:42:51;;;;;;;1.85;1.48;;;23.30;97.70;;;;;;5003440;28;20181;-90
2022/06/29 07:45:17;;;;;;;3.15;1.65;;;23.40;97.00;;;;;;4976483;28;20216;-88
2022/06/29 07:47:42;;;;;;;2.00;1.50;;;23.40;96.50;;;;;;4990046;28;20577;-91
2022/06/29 07:50:11;;;;;;;2.25;1.70;;;23.30;96.80;;;;;;4997196;28;20180;-89
2022/06/29 07:52:37;;;;;;;3.17;1.70;;;23.10;96.80;;;;;;4994913;28;20172;-90
2022/06/29 07:55:03;;;;;;;2.30;1.70;;;23.10;97.10;;;;;;4994517;28;20199;-88
2022/06/29 07:57:29;;;;;;;4.65;1.70;;;23.00;97.20;;;;;;4997178;28;20183;-92
2022/06/29 07:59:54;;;;;;;1.75;1.65;;;23.00;97.00;;;;;;4995314;28;20187;-92
2022/06/29 08:02:20;;;;;;;1.73;1.63;;;23.20;97.50;;;;;;4978891;28;20231;-91
2022/06/29 08:04:46;;;;;;;3.95;1.83;;;23.30;97.50;;;;;;5002986;28;20633;-88
2022/06/29 08:07:12;;;;;;;2.20;1.52;;;23.50;97.40;;;;;;5009834;28;20198;-91
2022/06/29 08:09:37;;;;;;;2.00;1.67;;;23.60;97.20;;;;;;4999326;28;20607;-90
2022/06/29 08:12:03;;;;;;;2.30;1.63;;;23.60;96.80;;;;;;5003339;28;20187;-89
2022/06/29 08:14:29;;;;;;;4.07;1.85;;;23.60;97.50;;;;;;4998327;28;20210;-90
2022/06/29 08:16:55;;;;;;;2.13;1.73;;;23.60;96.60;;;;;;4999008;28;20228;-92
2022/06/29 08:19:20;;;;;;;1.88;1.60;;;23.60;96.50;;;;;;5009836;28;20255;-89
2022/06/29 08:21:46;;;;;;;2.03;1.70;;;23.60;97.10;;;;;;4994935;28;20186;-92
2022/06/29 08:24:12;;;;;;;1.90;1.80;;;23.80;96.80;;;;;;4996068;28;20258;-88
2022/06/29 08:26:38;;;;;;;2.72;1.80;;;23.90;96.20;;;;;;4995516;28;20653;-94
2022/06/29 08:29:04;;;;;;;2.30;1.90;;;23.80;96.20;;;;;;4999633;28;20258;-90
2022/06/29 08:31:30;;;;;;;2.42;1.70;;;24.00;96.60;;;;;;5008025;28;20200;-93
2022/06/29 08:33:56;;;;;;;2.95;1.80;;;24.20;96.10;;;;;;4994646;28;20186;-90
2022/06/29 08:36:22;;;;;;;2.83;1.90;;;24.40;96.20;;;;;;4995914;28;20636;-88
2022/06/29 08:38:48;;;;;;;1.85;1.67;;;24.60;96.20;;;;;;5013712;28;20198;-88
2022/06/29 08:41:15;;;;;;;2.85;2.10;;;24.80;95.50;;;;;;5005909;28;20192;-93
2022/06/29 08:43:42;;;;;;;4.75;1.88;;;24.70;94.40;;;;;;5000932;28;20237;-90
2022/06/29 08:46:13;;;;;;;4.38;2.17;;;24.50;94.60;;;;;;5008988;28;20216;-88
2022/06/29 08:48:39;;;;;;;2.70;1.67;;;24.40;94.90;;;;;;4999833;28;20220;-93
2022/06/29 08:51:06;;;;;;;1.75;1.65;;;24.30;95.20;;;;;;4976444;28;20180;-89
2022/06/29 08:53:33;;;;;;;5.70;1.50;;;24.20;95.40;;;;;;4994136;28;20195;-89
2022/06/29 08:56:06;;;;;;;1.77;1.60;;;24.30;95.90;;;;;;4995863;28;20172;-89
2022/06/29 08:58:35;;;;;;;1.80;1.52;;;24.30;95.40;;;;;;4995829;28;20184;-91
2022/06/29 09:01:00;;;;;;;1.60;1.40;;;24.40;95.10;;;;;;4990300;28;20225;-89
2022/06/29 09:03:26;;;;;;;1.30;1.20;;;24.40;94.00;;;;;;4994366;28;20235;-95
2022/06/29 09:05:56;;;;;;;2.30;1.50;;;24.40;94.60;;;;;;4994382;28;20250;-91
2022/06/29 09:08:22;;;;;;;1.50;1.40;;;24.40;93.40;;;;;;5010276;28;20195;-92
2022/06/29 09:10:51;;;;;;;1.77;1.23;;;24.40;93.70;;;;;;4995956;28;20255;-89
2022/06/29 09:13:21;;;;;;;5.75;1.40;;;24.40;93.70;;;;;;5003095;28;20184;-92
2022/06/29 09:16:04;;;;;;;4.00;1.40;;;24.40;94.10;;;;;;5006472;28;20614;-87
2022/06/29 09:18:33;;;;;;;1.95;1.50;;;24.40;94.50;;;;;;4988194;28;20294;-90
2022/06/29 09:21:01;;;;;;;1.80;1.50;;;24.40;94.50;;;;;;4995209;28;20179;-89
2022/06/29 09:23:28;;;;;;;2.60;1.63;;;24.50;94.50;;;;;;4998293;28;20270;-88
2022/06/29 09:25:54;;;;;;;1.63;1.20;;;24.60;93.70;;;;;;4991473;28;20208;-91
2022/06/29 09:28:26;;;;;;;1.40;1.30;;;24.70;94.10;;;;;;4993047;28;20207;-90
2022/06/29 09:30:53;;;;;;;2.03;1.60;;;24.80;93.70;;;;;;4995206;28;20202;-89
2022/06/29 09:33:24;;;;;;;1.58;1.48;;;24.90;94.00;;;;;;4993720;28;20610;-93
2022/06/29 09:36:10;;;;;;;3.47;1.58;;;25.00;93.60;;;;;;4991525;28;20648;-90
2022/06/29 09:38:37;;;;;;;4.10;1.45;;;24.90;93.40;;;;;;4992998;28;20223;-89
2022/06/29 09:41:13;;;;;;;1.90;1.50;;;24.90;93.60;;;;;;4993285;28;20630;-91
2022/06/29 09:43:41;;;;;;;2.38;1.30;;;24.80;92.80;;;;;;4993943;28;20215;-89
2022/06/29 09:46:09;;;;;;;4.35;1.48;;;24.80;92.80;;;;;;4992726;28;20247;-88
2022/06/29 09:48:36;;;;;;;1.58;1.35;;;24.80;92.70;;;;;;4988667;28;20185;-90
2022/06/29 09:51:48;;;;;;;2.65;1.67;;;24.80;93.10;;;;;;4975949;28;20235;-92
2022/06/29 09:53:54;;;;;;;2.75;1.77;;;24.80;92.50;;;;;;4978180;28;20200;-89
2022/06/29 09:56:30;;;;;;;3.15;1.60;;;24.80;93.30;;;;;;5017540;28;20544;-88
2022/06/29 09:59:01;;;;;;;2.05;1.45;;;24.80;93.60;;;;;;4992525;28;20185;-88
2022/06/29 10:04:17;;;;;;;5.35;2.00;;;25.00;93.70;;;;;;4998253;28;20250;-92
2022/06/29 10:06:45;;;;;;;1.88;1.67;;;25.00;93.30;;;;;;4997901;28;20559;-89
2022/06/29 10:09:11;;;;;;;1.88;1.70;;;25.00;92.80;;;;;;4993067;28;20187;-88
2022/06/29 10:15:06;;;;;;;1.42;1.33;;;25.10;92.40;;;;;;4993630;28;20187;-90
2022/06/29 10:17:41;;;;;;;2.67;1.75;;;25.10;93.30;;;;;;4990762;28;20185;-92
2022/06/29 10:20:25;;;;;;;1.80;1.40;;;25.20;92.70;;;;;;5012379;28;20194;-92
2022/06/29 10:22:51;;;;;;;3.17;1.77;;;25.20;92.50;;;;;;5000386;28;20238;-87
2022/06/29 10:25:27;;;;;;;1.73;1.40;;;25.20;91.60;;;;;;5008944;28;20223;-88
2022/06/29 10:28:08;;;;;;;1.83;1.40;;;25.10;90.80;;;;;;5000284;28;20190;-89
2022/06/29 10:30:34;;;;;;;2.30;1.60;;;25.00;91.40;;;;;;5002724;28;20176;-91
2022/06/29 10:33:31;;;;;;;1.85;1.50;;;25.00;91.30;;;;;;4998656;28;20607;-88
2022/06/29 10:36:08;;;;;;;2.05;1.55;;;25.00;91.70;;;;;;4996585;28;20176;-87
2022/06/29 10:38:55;;;;;;;2.00;1.30;;;25.00;92.10;;;;;;4995613;28;20226;-92
2022/06/29 10:44:06;;;;;;;2.88;1.30;;;24.90;92.40;;;;;;4998947;28;20206;-90
2022/06/29 10:47:03;;;;;;;2.53;1.40;;;24.90;92.50;;;;;;4997695;28;20226;-91
2022/06/29 10:49:28;;;;;;;1.83;1.10;;;24.90;92.30;;;;;;4968952;28;20207;-88
2022/06/29 10:51:56;;;;;;;0.88;0.85;;;24.90;92.10;;;;;;4994017;28;20291;-91
2022/06/29 10:54:27;;;;;;;1.73;1.10;;;24.90;92.10;;;;;;4994561;28;20187;-91
2022/06/29 10:56:54;;;;;;;3.00;1.02;;;25.10;91.80;;;;;;4997637;28;20310;-86
2022/06/29 10:59:34;;;;;;;1.65;1.00;;;25.20;90.70;;;;;;5000718;28;20187;-90
2022/06/29 11:02:13;;;;;;;2.17;0.88;;;25.30;90.40;;;;;;5000087;28;20251;-90
2022/06/29 11:04:40;;;;;;;1.02;0.80;;;25.40;88.50;;;;;;4986132;28;20648;-91
2022/06/29 11:12:52;;;;;;;1.40;0.80;;;25.30;87.70;;;;;;4999662;28;20199;-88
2022/06/29 11:15:45;;;;;;;1.52;0.77;;;25.30;86.50;;;;;;4997368;28;20559;-90
2022/06/29 11:18:13;;;;;;;2.28;0.80;;;25.30;86.30;;;;;;4997585;28;20191;-86
2022/06/29 11:20:44;;;;;;;2.13;0.80;;;25.20;86.70;;;;;;4996665;28;20172;-95
2022/06/29 11:23:16;;;;;;;1.48;0.80;;;25.30;86.40;;;;;;4997073;28;20230;-90
2022/06/29 11:25:47;;;;;;;5.63;1.10;;;25.40;84.90;;;;;;4996123;28;20658;-90
2022/06/29 11:28:17;;;;;;;1.48;0.70;;;25.50;84.10;;;;;;4996210;28;20212;-91
2022/06/29 11:31:03;;;;;;;0.80;0.80;;;25.70;84.90;;;;;;4996431;28;20183;-91
2022/06/29 11:33:49;;;;;;;3.33;1.00;;;25.80;85.60;;;;;;5003698;28;20286;-92
2022/06/29 11:36:18;;;;;;;3.25;1.25;;;25.80;84.20;;;;;;5012980;28;20191;-88
2022/06/29 11:38:46;;;;;;;3.80;1.10;;;26.00;87.40;;;;;;4995149;28;20532;-94
2022/06/29 11:41:17;;;;;;;1.33;1.02;;;26.00;85.80;;;;;;4989017;28;20188;-91
2022/06/29 11:43:43;;;;;;;2.65;1.10;;;26.00;87.50;;;;;;4999833;28;20278;-89
2022/06/29 11:46:19;;;;;;;1.60;1.02;;;26.00;87.30;;;;;;4987800;28;20205;-90
2022/06/29 11:51:35;;;;;;;2.13;1.00;;;26.10;84.60;;;;;;4997597;28;20222;-90
2022/06/29 11:54:06;;;;;;;1.77;1.10;;;25.90;85.90;;;;;;4997462;28;20611;-90
2022/06/29 11:56:36;;;;;;;2.53;1.38;;;25.90;85.50;;;;;;5012242;28;20179;-93
2022/06/29 11:59:06;;;;;;;0.90;0.88;;;25.80;86.20;;;;;;4995805;28;20180;-89
2022/06/29 12:01:32;;;;;;;3.83;1.27;;;25.70;86.40;;;;;;4993620;28;20273;-90
2022/06/29 12:04:00;;;;;;;4.00;1.00;;;25.70;86.10;;;;;;4990172;28;20184;-88
2022/06/29 12:06:29;;;;;;;1.50;1.30;;;25.60;85.90;;;;;;4995243;28;20243;-92
2022/06/29 12:08:56;;;;;;;2.28;1.13;;;25.60;85.70;;;;;;5003313;28;20688;-91
2022/06/29 12:11:23;;;;;;;3.25;1.20;;;25.60;87.90;;;;;;5000833;28;20187;-96
2022/06/29 12:13:49;;;;;;;5.10;1.02;;;25.70;87.60;;;;;;4995648;28;20179;-90
2022/06/29 12:16:15;;;;;;;2.25;1.33;;;25.90;85.00;;;;;;4994722;28;20215;-92
2022/06/29 12:18:41;;;;;;;2.47;1.15;;;26.10;86.20;;;;;;4994876;28;21844;-92
2022/06/29 12:21:08;;;;;;;1.63;1.20;;;26.20;85.30;;;;;;5027008;28;20197;-87
2022/06/29 12:23:34;;;;;;;2.17;1.10;;;26.40;86.20;;;;;;4994989;28;20188;-93
2022/06/29 12:25:59;;;;;;;1.60;1.20;;;26.40;85.80;;;;;;5011092;28;20208;-91
2022/06/29 12:28:27;;;;;;;1.38;1.15;;;26.40;85.90;;;;;;5006124;28;20194;-90
2022/06/29 12:30:52;;;;;;;1.33;1.20;;;26.40;85.00;;;;;;4996215;28;20634;-95
2022/06/29 12:33:19;;;;;;;2.38;1.40;;;26.40;85.10;;;;;;5007222;28;20190;-92
2022/06/29 12:35:46;;;;;;;3.42;1.10;;;26.40;84.20;;;;;;4995252;28;20598;-94
2022/06/29 12:38:14;;;;;;;3.17;1.40;;;26.40;85.00;;;;;;4996162;28;20254;-95
2022/06/29 12:40:40;;;;;;;2.35;1.40;;;26.20;86.00;;;;;;4996136;28;20270;-96
2022/06/29 12:43:06;;;;;;;1.70;1.40;;;26.20;85.60;;;;;;4986998;28;20184;-93
2022/06/29 12:45:32;;;;;;;1.95;1.30;;;26.20;86.30;;;;;;4995989;28;20913;-93
2022/06/29 12:48:04;;;;;;;1.85;1.30;;;26.20;84.00;;;;;;4996994;28;20741;-90
2022/06/29 12:50:30;;;;;;;1.35;1.17;;;26.00;84.40;;;;;;5009718;28;20510;-89
2022/06/29 12:52:56;;;;;;;3.38;1.50;;;26.00;84.40;;;;;;4994431;28;20594;-94
2022/06/29 12:55:22;;;;;;;1.67;1.40;;;26.00;88.30;;;;;;4995499;28;20191;-88
2022/06/29 12:58:03;;;;;;;3.55;1.20;;;26.10;86.60;;;;;;4995711;28;20511;-89
2022/06/29 13:00:28;;;;;;;1.55;1.15;;;26.20;87.80;;;;;;4992725;28;20187;-95
2022/06/29 13:02:54;;;;;;;2.15;1.30;;;26.20;87.10;;;;;;4994877;28;20635;-90
2022/06/29 13:05:21;;;;;;;3.60;1.35;;;26.30;88.10;;;;;;5000401;28;20638;-94
2022/06/29 13:07:48;;;;;;;3.20;1.50;;;26.50;87.10;;;;;;5013754;28;20186;-91
2022/06/29 13:10:13;;;;;;;4.82;1.33;;;26.60;84.80;;;;;;5009886;28;20282;-89
2022/06/29 13:12:39;;;;;;;4.85;1.10;;;26.50;85.90;;;;;;5008043;28;20266;-93
2022/06/29 13:15:05;;;;;;;2.50;1.30;;;26.40;85.90;;;;;;4994402;28;20606;-88
2022/06/29 13:17:31;;;;;;;1.20;1.10;;;26.30;85.50;;;;;;5000287;28;20183;-89
2022/06/29 13:19:59;;;;;;;2.45;1.48;;;26.20;87.20;;;;;;4994727;28;20266;-91